Time;durP1;ratioP1;P1;durP2;ratioP2;P2;SDS_P1;SDS_P2;PMS_P1;PMS_P2;Temp;Humidity;BMP_temperature;BMP_pressure;BME280_temperature;BME280_humidity;BME280_pressure;Samples;Min_cycle;Max_cycle;Signal;HPM_P1;HPM_P2
2024/03/25 00:00:13;;;;;;;0.30;0.20;;;7.40;99.90;;;;;;5086958;28;20176;-78
2024/03/25 00:02:40;;;;;;;0.30;0.20;;;7.40;99.90;;;;;;5086498;28;20220;-75
2024/03/25 00:05:09;;;;;;;0.30;0.20;;;7.40;99.90;;;;;;5087050;28;20180;-78
2024/03/25 00:07:35;;;;;;;0.30;0.20;;;7.40;99.90;;;;;;5086715;28;20224;-79
2024/03/25 00:10:01;;;;;;;0.30;0.20;;;7.40;99.90;;;;;;5086069;28;20220;-74
2024/03/25 00:12:27;;;;;;;0.30;0.20;;;7.40;99.90;;;;;;5086673;28;20200;-78
2024/03/25 00:14:53;;;;;;;0.30;0.20;;;7.40;99.90;;;;;;5085208;28;20211;-74
2024/03/25 00:17:19;;;;;;;0.30;0.20;;;7.30;99.90;;;;;;5084866;28;20180;-74
2024/03/25 00:19:50;;;;;;;0.30;0.20;;;7.30;99.90;;;;;;5084830;28;20177;-78
2024/03/25 00:22:17;;;;;;;0.30;0.20;;;7.30;99.90;;;;;;5085811;28;20168;-78
2024/03/25 00:24:42;;;;;;;0.30;0.20;;;7.30;99.90;;;;;;5086383;28;20165;-78
2024/03/25 00:27:08;;;;;;;0.30;0.20;;;7.30;99.90;;;;;;5086175;28;20229;-78
2024/03/25 00:29:34;;;;;;;0.30;0.20;;;7.30;99.90;;;;;;5084986;28;20204;-78
2024/03/25 00:31:59;;;;;;;0.30;0.20;;;7.30;99.90;;;;;;5083872;28;20250;-79
2024/03/25 00:34:25;;;;;;;0.30;0.20;;;7.30;99.90;;;;;;5086344;28;20200;-78
2024/03/25 00:36:50;;;;;;;0.30;0.20;;;7.30;99.90;;;;;;5086093;28;20203;-74
2024/03/25 00:39:17;;;;;;;0.30;0.20;;;7.20;99.90;;;;;;5086022;28;20257;-74
2024/03/25 00:41:42;;;;;;;0.30;0.20;;;7.20;99.90;;;;;;5086078;28;20173;-78
2024/03/25 00:44:08;;;;;;;0.30;0.20;;;7.10;99.90;;;;;;5085794;28;20766;-77
2024/03/25 00:46:33;;;;;;;0.30;0.20;;;7.10;99.90;;;;;;5084743;28;20180;-75
2024/03/25 00:48:59;;;;;;;0.30;0.20;;;7.10;99.90;;;;;;5085731;28;20527;-74
2024/03/25 00:51:24;;;;;;;0.30;0.20;;;7.10;99.90;;;;;;5085595;28;20212;-78
2024/03/25 00:53:50;;;;;;;0.30;0.20;;;7.10;99.90;;;;;;5085915;28;20264;-74
2024/03/25 00:56:16;;;;;;;0.30;0.20;;;7.10;99.90;;;;;;5085657;28;20180;-78
2024/03/25 00:58:41;;;;;;;0.30;0.20;;;7.00;99.90;;;;;;5085923;28;20195;-79
2024/03/25 01:01:07;;;;;;;0.30;0.20;;;7.00;99.90;;;;;;5084497;28;20602;-76
2024/03/25 01:03:33;;;;;;;0.30;0.20;;;7.00;99.90;;;;;;5085349;28;20188;-75
2024/03/25 01:05:59;;;;;;;0.30;0.20;;;7.00;99.90;;;;;;5086175;28;20538;-74
2024/03/25 01:08:25;;;;;;;0.30;0.20;;;6.90;99.90;;;;;;5084130;28;20197;-78
2024/03/25 01:10:50;;;;;;;0.30;0.20;;;7.00;99.90;;;;;;5085671;28;20236;-78
2024/03/25 01:13:16;;;;;;;0.30;0.20;;;6.90;99.90;;;;;;5083829;28;20199;-74
2024/03/25 01:15:42;;;;;;;0.30;0.20;;;6.90;99.90;;;;;;5084469;28;20275;-78
2024/03/25 01:18:08;;;;;;;0.30;0.20;;;6.80;99.90;;;;;;5085141;28;20255;-78
2024/03/25 01:20:34;;;;;;;0.30;0.20;;;6.80;99.90;;;;;;5085505;28;20168;-74
2024/03/25 01:22:59;;;;;;;0.30;0.20;;;6.80;99.90;;;;;;5083554;28;20203;-74
2024/03/25 01:25:25;;;;;;;0.30;0.20;;;6.80;99.90;;;;;;5085942;28;20260;-74
2024/03/25 01:27:51;;;;;;;0.30;0.20;;;6.80;99.90;;;;;;5085581;28;20596;-75
2024/03/25 01:30:18;;;;;;;0.30;0.20;;;6.80;99.90;;;;;;5085511;28;20249;-78
2024/03/25 01:32:47;;;;;;;0.30;0.20;;;6.80;99.90;;;;;;5085395;28;20243;-78
2024/03/25 01:35:13;;;;;;;0.30;0.20;;;6.80;99.90;;;;;;5084015;28;20176;-79
2024/03/25 01:37:38;;;;;;;0.30;0.20;;;6.80;99.90;;;;;;5085170;28;20653;-74
2024/03/25 01:40:05;;;;;;;0.30;0.20;;;6.80;99.90;;;;;;5085850;28;20168;-78
2024/03/25 01:42:30;;;;;;;0.30;0.20;;;6.80;99.90;;;;;;5083729;28;20203;-78
2024/03/25 01:44:56;;;;;;;0.30;0.30;;;6.80;99.90;;;;;;5089303;28;20559;-74
2024/03/25 01:47:22;;;;;;;0.30;0.20;;;6.80;99.90;;;;;;5089381;28;20180;-78
2024/03/25 01:49:49;;;;;;;0.30;0.20;;;6.70;99.90;;;;;;5087984;28;20175;-75
2024/03/25 01:52:16;;;;;;;0.30;0.20;;;6.70;99.90;;;;;;5087707;28;21070;-74
2024/03/25 01:54:42;;;;;;;0.30;0.30;;;6.70;99.90;;;;;;5088013;28;20184;-78
2024/03/25 01:57:09;;;;;;;0.30;0.30;;;6.80;99.90;;;;;;5089287;28;20249;-74
2024/03/25 01:59:34;;;;;;;0.30;0.20;;;6.70;99.90;;;;;;5089371;28;20396;-74
2024/03/25 02:02:01;;;;;;;0.30;0.20;;;6.70;99.90;;;;;;5089354;28;20184;-74
2024/03/25 02:04:26;;;;;;;0.30;0.20;;;6.70;99.90;;;;;;5089007;28;20346;-78
2024/03/25 02:06:55;;;;;;;0.30;0.20;;;6.60;99.90;;;;;;5087716;28;20225;-78
2024/03/25 02:09:22;;;;;;;0.30;0.20;;;6.60;99.90;;;;;;5087358;28;20244;-74
2024/03/25 02:11:48;;;;;;;0.30;0.20;;;6.60;99.90;;;;;;5087445;28;20204;-74
2024/03/25 02:14:14;;;;;;;0.30;0.20;;;6.60;99.90;;;;;;5087332;28;20196;-78
2024/03/25 02:16:39;;;;;;;0.30;0.20;;;6.60;99.90;;;;;;5089001;28;20638;-77
2024/03/25 02:19:05;;;;;;;0.30;0.20;;;6.60;99.90;;;;;;5088453;28;20200;-79
2024/03/25 02:21:31;;;;;;;0.30;0.20;;;6.60;99.90;;;;;;5087801;28;20343;-74
2024/03/25 02:24:00;;;;;;;0.30;0.20;;;6.60;99.90;;;;;;5086915;28;20445;-74
2024/03/25 02:26:27;;;;;;;0.30;0.20;;;6.60;99.90;;;;;;5088532;28;20176;-79
2024/03/25 02:28:52;;;;;;;0.30;0.20;;;6.70;99.90;;;;;;5087302;28;20283;-78
2024/03/25 02:31:18;;;;;;;0.30;0.20;;;6.60;99.90;;;;;;5088355;28;20804;-75
2024/03/25 02:33:43;;;;;;;0.30;0.20;;;6.60;99.90;;;;;;5088486;28;20188;-74
2024/03/25 02:36:09;;;;;;;0.30;0.20;;;6.70;99.90;;;;;;5087598;28;20271;-74
2024/03/25 02:38:35;;;;;;;0.30;0.20;;;6.70;99.90;;;;;;5088540;28;20199;-78
2024/03/25 02:41:02;;;;;;;0.30;0.20;;;6.70;99.90;;;;;;5088479;28;20428;-78
2024/03/25 02:43:28;;;;;;;0.30;0.20;;;6.70;99.90;;;;;;5087569;28;20242;-78
2024/03/25 02:45:53;;;;;;;0.30;0.30;;;6.70;99.90;;;;;;5088417;28;20184;-75
2024/03/25 02:48:19;;;;;;;0.30;0.20;;;6.70;99.90;;;;;;5087695;28;20211;-74
2024/03/25 02:50:45;;;;;;;0.30;0.20;;;6.60;99.90;;;;;;5087051;28;20218;-77
2024/03/25 02:53:11;;;;;;;0.30;0.20;;;6.60;99.90;;;;;;5088050;28;20717;-78
2024/03/25 02:55:36;;;;;;;0.30;0.20;;;6.60;99.90;;;;;;5086280;28;20180;-74
2024/03/25 02:58:02;;;;;;;0.30;0.20;;;6.60;99.90;;;;;;5087967;28;20203;-78
2024/03/25 03:00:28;;;;;;;0.30;0.20;;;6.60;99.90;;;;;;5086975;28;20722;-74
2024/03/25 03:02:53;;;;;;;0.30;0.30;;;6.60;99.90;;;;;;5087836;28;20483;-78
2024/03/25 03:05:19;;;;;;;0.30;0.30;;;6.60;99.90;;;;;;5088270;28;20572;-74
2024/03/25 03:07:44;;;;;;;0.30;0.20;;;6.60;99.90;;;;;;5086608;28;20594;-75
2024/03/25 03:10:10;;;;;;;0.30;0.20;;;6.60;99.90;;;;;;5085759;28;20220;-74
2024/03/25 03:12:36;;;;;;;0.30;0.20;;;6.50;99.90;;;;;;5086282;28;20441;-74
2024/03/25 03:15:01;;;;;;;0.30;0.20;;;6.60;99.90;;;;;;5087775;28;20248;-74
2024/03/25 03:17:27;;;;;;;0.30;0.20;;;6.60;99.90;;;;;;5087954;28;20733;-79
2024/03/25 03:19:52;;;;;;;0.30;0.20;;;6.60;99.90;;;;;;5086576;28;20642;-75
2024/03/25 03:22:18;;;;;;;0.30;0.20;;;6.60;99.90;;;;;;5086359;28;20245;-74
2024/03/25 03:24:44;;;;;;;0.30;0.20;;;6.60;99.90;;;;;;5086058;28;20206;-74
2024/03/25 03:27:09;;;;;;;0.30;0.20;;;6.60;99.90;;;;;;5087377;28;20809;-74
2024/03/25 03:29:35;;;;;;;0.30;0.20;;;6.60;99.90;;;;;;5087803;28;20176;-74
2024/03/25 03:32:00;;;;;;;0.30;0.20;;;6.60;99.90;;;;;;5085895;28;20238;-74
2024/03/25 03:34:26;;;;;;;0.30;0.20;;;6.60;99.90;;;;;;5085848;28;20215;-78
2024/03/25 03:36:52;;;;;;;0.30;0.20;;;6.60;99.90;;;;;;5085885;28;20644;-75
2024/03/25 03:39:17;;;;;;;0.30;0.20;;;6.60;99.90;;;;;;5087060;28;20266;-74
2024/03/25 03:41:43;;;;;;;0.30;0.20;;;6.60;99.90;;;;;;5087204;28;20261;-74
2024/03/25 03:44:09;;;;;;;0.30;0.20;;;6.60;99.90;;;;;;5085431;28;20259;-78
2024/03/25 03:46:35;;;;;;;0.30;0.20;;;6.60;99.90;;;;;;5085742;28;20180;-74
2024/03/25 03:49:00;;;;;;;0.30;0.20;;;6.60;99.90;;;;;;5085461;28;20255;-74
2024/03/25 03:51:26;;;;;;;0.30;0.20;;;6.50;99.90;;;;;;5086734;28;20622;-75
2024/03/25 03:53:52;;;;;;;0.30;0.20;;;6.60;99.90;;;;;;5087239;28;20196;-77
2024/03/25 03:56:17;;;;;;;0.30;0.20;;;6.60;99.90;;;;;;5086779;28;20742;-74
2024/03/25 03:58:43;;;;;;;0.30;0.20;;;6.70;99.90;;;;;;5086859;28;20188;-78
2024/03/25 04:01:16;;;;;;;0.30;0.20;;;6.70;99.90;;;;;;5087041;28;20247;-74
2024/03/25 04:03:42;;;;;;;0.30;0.20;;;6.70;99.90;;;;;;5085338;28;20283;-76
2024/03/25 04:06:10;;;;;;;0.30;0.20;;;6.70;99.90;;;;;;5087439;28;20580;-74
2024/03/25 04:08:35;;;;;;;0.30;0.20;;;6.70;99.90;;;;;;5086628;28;20700;-77
2024/03/25 04:11:02;;;;;;;0.30;0.20;;;6.70;99.90;;;;;;5085033;28;20293;-74
2024/03/25 04:13:27;;;;;;;0.30;0.20;;;6.70;99.90;;;;;;5086292;28;20283;-78
2024/03/25 04:15:53;;;;;;;0.30;0.20;;;6.70;99.90;;;;;;5085944;28;20249;-74
2024/03/25 04:18:19;;;;;;;0.30;0.20;;;6.70;99.90;;;;;;5086051;28;20261;-78
2024/03/25 04:20:44;;;;;;;0.30;0.20;;;6.60;99.90;;;;;;5086584;28;20706;-75
2024/03/25 04:23:10;;;;;;;0.30;0.20;;;6.60;99.90;;;;;;5084979;28;20639;-74
2024/03/25 04:25:37;;;;;;;0.30;0.20;;;6.60;99.90;;;;;;5086182;28;20214;-78
2024/03/25 04:28:03;;;;;;;0.30;0.20;;;6.60;99.90;;;;;;5086025;28;20189;-77
2024/03/25 04:30:29;;;;;;;0.30;0.20;;;6.60;99.90;;;;;;5086352;28;20562;-73
2024/03/25 04:32:55;;;;;;;0.30;0.20;;;6.50;99.90;;;;;;5085974;28;20203;-74
2024/03/25 04:35:20;;;;;;;0.30;0.20;;;6.50;99.90;;;;;;5086197;28;20187;-74
2024/03/25 04:37:46;;;;;;;0.30;0.30;;;6.50;99.90;;;;;;5085933;28;20677;-74
2024/03/25 04:40:14;;;;;;;0.30;0.20;;;6.40;99.90;;;;;;5086455;28;20660;-78
2024/03/25 04:42:40;;;;;;;0.30;0.20;;;6.40;99.90;;;;;;5084264;28;20614;-78
2024/03/25 04:45:07;;;;;;;0.30;0.20;;;6.40;99.90;;;;;;5084806;28;20202;-78
2024/03/25 04:47:32;;;;;;;0.30;0.20;;;6.30;99.90;;;;;;5085633;28;20724;-74
2024/03/25 04:49:58;;;;;;;0.30;0.20;;;6.30;99.90;;;;;;5084862;28;20180;-74
2024/03/25 04:52:25;;;;;;;0.30;0.20;;;6.30;99.90;;;;;;5085657;28;20574;-73
2024/03/25 04:54:51;;;;;;;0.30;0.20;;;6.30;99.90;;;;;;5085784;28;20353;-74
2024/03/25 04:57:17;;;;;;;0.30;0.20;;;6.30;99.90;;;;;;5083967;28;20211;-78
2024/03/25 04:59:43;;;;;;;0.30;0.20;;;6.30;99.90;;;;;;5083928;28;20173;-74
2024/03/25 05:02:08;;;;;;;0.30;0.20;;;6.30;99.90;;;;;;5084718;28;20538;-78
2024/03/25 05:04:34;;;;;;;0.30;0.20;;;6.30;99.90;;;;;;5085602;28;20234;-73
2024/03/25 05:07:00;;;;;;;0.30;0.20;;;6.30;99.90;;;;;;5084090;28;20199;-73
2024/03/25 05:09:26;;;;;;;0.30;0.20;;;6.30;99.90;;;;;;5083837;28;20224;-74
2024/03/25 05:11:51;;;;;;;0.30;0.20;;;6.40;99.90;;;;;;5085141;28;20251;-78
2024/03/25 05:14:17;;;;;;;0.30;0.20;;;6.50;99.90;;;;;;5084034;28;20569;-78
2024/03/25 05:16:43;;;;;;;0.30;0.20;;;6.50;99.90;;;;;;5085511;28;20222;-75
2024/03/25 05:19:08;;;;;;;0.30;0.20;;;6.60;99.90;;;;;;5083830;28;20216;-74
2024/03/25 05:21:34;;;;;;;0.30;0.20;;;6.70;99.90;;;;;;5082683;28;20180;-78
2024/03/25 05:24:00;;;;;;;0.30;0.20;;;6.80;99.90;;;;;;5084773;28;20684;-78
2024/03/25 05:26:25;;;;;;;0.30;0.20;;;6.80;99.90;;;;;;5083556;28;20184;-78
2024/03/25 05:29:00;;;;;;;0.30;0.20;;;6.90;99.90;;;;;;5081208;28;20265;-74
2024/03/25 05:31:25;;;;;;;0.30;0.20;;;7.00;99.90;;;;;;5084764;28;20207;-78
2024/03/25 05:33:51;;;;;;;0.30;0.20;;;7.10;99.90;;;;;;5082421;28;20253;-79
2024/03/25 05:36:17;;;;;;;0.30;0.20;;;7.10;99.90;;;;;;5083770;28;20188;-76
2024/03/25 05:38:43;;;;;;;0.30;0.20;;;7.20;99.90;;;;;;5083184;28;20478;-78
2024/03/25 05:41:09;;;;;;;0.30;0.20;;;7.30;99.90;;;;;;5085072;28;20205;-74
2024/03/25 05:43:35;;;;;;;0.30;0.20;;;7.40;99.90;;;;;;5084181;28;20192;-78
2024/03/25 05:46:01;;;;;;;0.30;0.20;;;7.40;99.90;;;;;;5085230;28;20332;-74
2024/03/25 05:48:27;;;;;;;0.30;0.20;;;7.40;99.90;;;;;;5082389;28;20697;-78
2024/03/25 05:51:09;;;;;;;0.30;0.20;;;7.30;99.90;;;;;;5085188;28;20200;-77
2024/03/25 05:53:37;;;;;;;0.30;0.30;;;7.40;99.90;;;;;;5079978;28;20837;-78
2024/03/25 05:56:03;;;;;;;0.30;0.20;;;7.40;99.90;;;;;;5081154;28;20184;-74
2024/03/25 05:58:29;;;;;;;0.30;0.20;;;7.40;99.90;;;;;;5084093;28;20212;-79
2024/03/25 06:00:55;;;;;;;0.30;0.20;;;7.50;99.90;;;;;;5082781;28;20820;-78
2024/03/25 06:03:21;;;;;;;0.30;0.20;;;7.60;99.90;;;;;;5077354;28;20443;-74
2024/03/25 06:05:47;;;;;;;0.30;0.20;;;7.70;99.90;;;;;;5080683;28;20187;-74
2024/03/25 06:08:25;;;;;;;0.30;0.20;;;7.70;99.90;;;;;;5082052;28;20758;-79
2024/03/25 06:10:51;;;;;;;0.30;0.20;;;7.80;99.90;;;;;;5080212;28;20829;-75
2024/03/25 06:13:18;;;;;;;0.30;0.20;;;7.90;99.90;;;;;;5079743;28;20204;-75
2024/03/25 06:15:44;;;;;;;0.30;0.20;;;8.00;99.90;;;;;;5081973;28;20189;-74
2024/03/25 06:18:09;;;;;;;0.30;0.20;;;8.10;99.90;;;;;;5079014;28;20203;-79
2024/03/25 06:20:35;;;;;;;0.30;0.20;;;8.20;99.90;;;;;;5078030;28;20705;-78
2024/03/25 06:23:01;;;;;;;0.30;0.20;;;8.30;99.90;;;;;;5065015;28;20575;-74
2024/03/25 06:25:27;;;;;;;0.30;0.20;;;8.50;99.90;;;;;;5081808;28;20186;-78
2024/03/25 06:27:54;;;;;;;0.30;0.20;;;8.60;99.90;;;;;;5079983;28;20204;-79
2024/03/25 06:35:48;;;;;;;0.30;0.20;;;8.90;99.90;;;;;;5084950;28;20191;-78
2024/03/25 06:38:14;;;;;;;0.30;0.20;;;9.10;99.90;;;;;;5086349;28;20733;-81
2024/03/25 06:40:40;;;;;;;0.30;0.20;;;9.20;99.90;;;;;;5086180;28;20184;-74
2024/03/25 06:43:05;;;;;;;0.30;0.20;;;9.30;99.90;;;;;;5086859;28;20674;-78
2024/03/25 06:45:31;;;;;;;0.30;0.20;;;9.40;99.90;;;;;;5086604;28;20204;-74
2024/03/25 06:47:57;;;;;;;0.30;0.20;;;9.50;99.90;;;;;;5081952;28;20200;-74
2024/03/25 06:50:23;;;;;;;0.30;0.20;;;9.70;99.90;;;;;;5083596;28;20187;-78
2024/03/25 06:52:49;;;;;;;0.30;0.20;;;9.70;99.90;;;;;;5077211;28;20454;-74
2024/03/25 06:55:15;;;;;;;0.30;0.20;;;9.80;99.90;;;;;;5097459;28;20426;-75
2024/03/25 06:57:41;;;;;;;0.30;0.20;;;9.90;99.90;;;;;;5075542;28;20641;-74
2024/03/25 07:00:12;;;;;;;0.30;0.20;;;9.90;99.90;;;;;;5083052;28;20766;-74
2024/03/25 07:02:38;;;;;;;0.30;0.20;;;10.00;99.90;;;;;;5080019;28;20567;-74
2024/03/25 07:05:05;;;;;;;0.30;0.20;;;10.00;99.90;;;;;;5084141;28;20176;-78
2024/03/25 07:07:31;;;;;;;0.30;0.20;;;10.10;99.90;;;;;;5081597;28;20280;-74
2024/03/25 07:09:57;;;;;;;0.30;0.20;;;10.20;99.90;;;;;;5075747;28;20401;-76
2024/03/25 07:12:23;;;;;;;0.30;0.20;;;10.20;99.90;;;;;;5076519;28;20211;-78
2024/03/25 07:14:50;;;;;;;5.30;2.77;;;10.20;99.90;;;;;;5078002;28;20189;-79
2024/03/25 07:17:16;;;;;;;0.30;0.20;;;10.20;99.90;;;;;;5069362;28;20261;-79
2024/03/25 07:19:43;;;;;;;0.43;0.40;;;10.20;99.90;;;;;;5078165;28;20184;-78
2024/03/25 07:22:09;;;;;;;0.30;0.20;;;10.20;99.90;;;;;;5082233;28;20180;-79
2024/03/25 07:24:34;;;;;;;0.30;0.20;;;10.20;99.90;;;;;;5075892;28;20183;-79
2024/03/25 07:27:00;;;;;;;0.30;0.20;;;10.20;99.90;;;;;;5077818;28;20678;-75
2024/03/25 07:29:26;;;;;;;0.30;0.20;;;10.30;99.90;;;;;;5079054;28;20227;-80
2024/03/25 07:31:53;;;;;;;0.30;0.20;;;10.40;99.90;;;;;;5082594;28;20208;-75
2024/03/25 07:34:18;;;;;;;0.30;0.20;;;10.50;99.90;;;;;;5082072;28;20763;-79
2024/03/25 07:36:44;;;;;;;0.30;0.20;;;10.70;99.90;;;;;;5081409;28;20267;-75
2024/03/25 07:39:12;;;;;;;0.30;0.20;;;10.80;99.90;;;;;;5072435;28;20284;-75
2024/03/25 07:41:38;;;;;;;0.30;0.20;;;11.00;99.90;;;;;;5061741;28;20189;-75
2024/03/25 07:44:04;;;;;;;0.30;0.20;;;11.10;99.90;;;;;;5080297;28;20211;-79
2024/03/25 07:46:30;;;;;;;0.30;0.20;;;11.20;99.90;;;;;;5077567;28;20180;-79
2024/03/25 07:48:56;;;;;;;0.30;0.20;;;11.30;99.90;;;;;;5073697;28;20649;-75
2024/03/25 07:51:21;;;;;;;0.30;0.20;;;11.40;99.90;;;;;;5074908;28;20460;-75
2024/03/25 07:53:47;;;;;;;0.30;0.20;;;11.40;99.90;;;;;;5070344;28;20259;-79
2024/03/25 07:56:15;;;;;;;0.30;0.20;;;11.50;99.90;;;;;;5082130;28;20404;-75
2024/03/25 07:58:41;;;;;;;0.30;0.20;;;11.60;99.90;;;;;;5079076;28;20200;-75
2024/03/25 08:01:06;;;;;;;0.30;0.20;;;11.80;99.90;;;;;;5080254;28;20475;-79
2024/03/25 08:03:32;;;;;;;0.30;0.20;;;12.00;99.90;;;;;;5078116;28;20449;-76
2024/03/25 08:05:58;;;;;;;0.30;0.20;;;12.00;99.90;;;;;;5076627;28;20672;-75
2024/03/25 08:08:23;;;;;;;0.30;0.20;;;12.00;99.90;;;;;;5076485;28;20196;-75
2024/03/25 08:10:49;;;;;;;0.30;0.20;;;12.10;99.90;;;;;;5074926;28;20494;-79
2024/03/25 08:13:14;;;;;;;0.30;0.20;;;12.20;99.90;;;;;;5071220;28;20185;-79
2024/03/25 08:15:41;;;;;;;0.30;0.20;;;12.30;99.90;;;;;;5077221;28;20635;-79
2024/03/25 08:18:07;;;;;;;0.30;0.20;;;12.40;99.90;;;;;;5069732;28;20600;-79
2024/03/25 08:20:32;;;;;;;0.30;0.20;;;12.50;99.90;;;;;;5071613;28;20442;-76
2024/03/25 08:22:58;;;;;;;0.30;0.20;;;12.60;99.90;;;;;;5068944;28;20571;-75
2024/03/25 08:25:24;;;;;;;0.30;0.20;;;12.70;99.90;;;;;;5066967;28;20266;-75
2024/03/25 08:27:49;;;;;;;0.30;0.20;;;12.80;99.90;;;;;;5070255;28;20204;-79
2024/03/25 08:30:15;;;;;;;0.30;0.20;;;12.80;99.90;;;;;;5067374;28;20557;-75
2024/03/25 08:32:41;;;;;;;0.30;0.20;;;13.10;99.90;;;;;;5068554;28;20683;-76
2024/03/25 08:35:07;;;;;;;0.40;0.20;;;13.80;99.90;;;;;;5072211;28;20369;-75
2024/03/25 08:37:32;;;;;;;0.40;0.30;;;14.80;99.90;;;;;;5075047;28;20636;-79
2024/03/25 08:39:58;;;;;;;0.40;0.30;;;15.70;99.30;;;;;;5075640;28;20474;-80
2024/03/25 08:42:23;;;;;;;0.40;0.20;;;16.70;96.90;;;;;;5078251;28;20200;-76
2024/03/25 08:44:49;;;;;;;0.40;0.20;;;17.60;95.00;;;;;;5086379;28;20250;-75
2024/03/25 08:47:15;;;;;;;0.30;0.20;;;18.40;93.40;;;;;;5067852;28;20685;-77
2024/03/25 08:49:40;;;;;;;0.30;0.20;;;19.10;91.90;;;;;;5072558;28;20709;-79
2024/03/25 08:52:06;;;;;;;0.33;0.20;;;19.10;91.50;;;;;;5062418;28;20792;-76
2024/03/25 08:54:32;;;;;;;0.30;0.20;;;19.10;90.60;;;;;;5072955;28;20560;-76
2024/03/25 08:56:57;;;;;;;0.40;0.20;;;18.90;90.40;;;;;;5067372;28;20184;-75
2024/03/25 08:59:23;;;;;;;0.30;0.20;;;18.70;90.40;;;;;;5059672;28;20449;-78
2024/03/25 09:01:48;;;;;;;0.30;0.20;;;18.70;90.50;;;;;;5057305;28;20367;-78
2024/03/25 09:04:14;;;;;;;0.40;0.20;;;18.80;90.00;;;;;;5071576;28;20228;-75
2024/03/25 09:06:40;;;;;;;0.30;0.20;;;18.90;90.00;;;;;;5074540;28;20184;-78
2024/03/25 09:11:49;;;;;;;0.30;0.20;;;18.70;88.00;;;;;;5075541;28;20230;-75
2024/03/25 09:14:16;;;;;;;0.30;0.20;;;18.30;88.50;;;;;;5069661;28;20456;-75
2024/03/25 09:16:42;;;;;;;0.30;0.20;;;18.00;88.90;;;;;;5068050;28;20436;-78
2024/03/25 09:19:08;;;;;;;0.30;0.20;;;17.60;89.10;;;;;;5071225;28;20213;-78
2024/03/25 09:21:34;;;;;;;0.30;0.20;;;17.30;90.20;;;;;;5068789;28;20173;-78
2024/03/25 09:24:00;;;;;;;0.30;0.20;;;17.10;90.10;;;;;;5066556;28;20733;-79
2024/03/25 09:26:26;;;;;;;0.30;0.20;;;17.20;89.70;;;;;;5060079;28;20679;-78
2024/03/25 09:28:52;;;;;;;0.30;0.20;;;17.30;90.30;;;;;;5061421;28;20746;-78
2024/03/25 09:31:18;;;;;;;0.30;0.20;;;17.40;89.30;;;;;;5064692;28;20512;-75
2024/03/25 09:33:43;;;;;;;1.73;1.63;;;17.60;90.10;;;;;;5067332;28;20213;-75
2024/03/25 09:36:11;;;;;;;0.30;0.20;;;17.80;89.60;;;;;;5073273;28;20186;-75
2024/03/25 09:38:36;;;;;;;0.30;0.20;;;17.90;90.10;;;;;;5075148;28;20912;-78
2024/03/25 09:41:02;;;;;;;0.40;0.30;;;18.10;90.10;;;;;;5065478;28;20450;-75
2024/03/25 09:43:36;;;;;;;0.30;0.20;;;18.50;89.60;;;;;;5073545;28;20360;-77
2024/03/25 09:46:02;;;;;;;0.30;0.20;;;19.00;87.60;;;;;;5072758;28;20425;-75
2024/03/25 09:48:30;;;;;;;0.30;0.20;;;19.20;86.50;;;;;;5076551;28;20437;-75
2024/03/25 09:50:56;;;;;;;0.30;0.20;;;18.90;84.80;;;;;;5068962;28;20464;-75
2024/03/25 09:53:22;;;;;;;0.30;0.20;;;18.50;84.60;;;;;;5070326;28;20785;-78
2024/03/25 09:55:47;;;;;;;0.30;0.20;;;18.00;85.50;;;;;;5074010;28;20979;-75
2024/03/25 09:58:19;;;;;;;0.30;0.20;;;17.50;85.20;;;;;;5075605;28;20295;-79
2024/03/25 10:00:45;;;;;;;0.30;0.20;;;17.00;87.00;;;;;;5073875;28;20173;-79
2024/03/25 10:03:13;;;;;;;0.30;0.20;;;16.50;89.50;;;;;;5073146;28;20521;-76
2024/03/25 10:05:39;;;;;;;1.23;1.17;;;16.00;89.40;;;;;;5078452;28;20938;-79
2024/03/25 10:08:05;;;;;;;0.30;0.20;;;15.60;90.30;;;;;;5083646;28;20494;-78
2024/03/25 10:10:31;;;;;;;0.30;0.20;;;15.30;90.20;;;;;;5082683;28;20220;-79
2024/03/25 10:12:56;;;;;;;0.30;0.20;;;15.20;90.30;;;;;;5082597;28;20441;-75
2024/03/25 10:15:22;;;;;;;0.30;0.20;;;15.10;90.40;;;;;;5085188;28;20515;-76
2024/03/25 10:17:52;;;;;;;0.30;0.20;;;15.10;90.60;;;;;;5081523;28;20295;-75
2024/03/25 10:20:18;;;;;;;0.30;0.20;;;15.10;90.70;;;;;;5080486;28;20223;-75
2024/03/25 10:22:45;;;;;;;0.30;0.20;;;15.00;90.50;;;;;;5080015;28;20439;-76
2024/03/25 10:25:29;;;;;;;0.30;0.20;;;14.90;91.10;;;;;;5083652;28;20922;-79
2024/03/25 10:28:01;;;;;;;0.30;0.20;;;14.70;91.80;;;;;;5083002;28;20566;-76
2024/03/25 10:30:28;;;;;;;0.30;0.20;;;14.50;91.90;;;;;;5094214;28;20445;-78
2024/03/25 10:33:04;;;;;;;0.30;0.20;;;14.30;91.20;;;;;;5079207;28;20510;-76
2024/03/25 10:35:32;;;;;;;0.30;0.20;;;14.20;90.90;;;;;;5080935;28;20448;-78
2024/03/25 10:38:06;;;;;;;0.30;0.20;;;14.20;91.50;;;;;;5080173;28;20437;-78
2024/03/25 10:40:39;;;;;;;0.30;0.20;;;14.30;90.30;;;;;;5082084;28;20432;-78
2024/03/25 10:43:07;;;;;;;0.30;0.20;;;14.50;90.10;;;;;;5079888;28;20444;-76
2024/03/25 10:45:35;;;;;;;0.30;0.20;;;14.70;90.20;;;;;;5081428;28;20792;-79
2024/03/25 10:48:10;;;;;;;0.30;0.20;;;14.80;89.60;;;;;;5076838;28;20436;-76
2024/03/25 10:50:38;;;;;;;0.30;0.20;;;15.00;88.60;;;;;;5077257;28;20421;-76
2024/03/25 10:53:05;;;;;;;0.30;0.20;;;15.10;90.00;;;;;;5082655;28;20498;-78
2024/03/25 10:55:33;;;;;;;0.30;0.20;;;15.30;89.00;;;;;;5076100;28;20437;-78
2024/03/25 10:58:00;;;;;;;0.30;0.20;;;15.50;87.30;;;;;;5078898;28;20864;-76
2024/03/25 11:00:26;;;;;;;0.30;0.20;;;15.60;86.60;;;;;;5082694;28;20446;-78
2024/03/25 11:02:53;;;;;;;0.30;0.20;;;15.60;87.10;;;;;;5080356;28;20449;-79
2024/03/25 11:05:19;;;;;;;0.30;0.20;;;15.70;87.80;;;;;;5083138;28;20187;-76
2024/03/25 11:07:45;;;;;;;0.30;0.20;;;15.70;85.40;;;;;;5080921;28;20445;-78
2024/03/25 11:10:12;;;;;;;0.30;0.20;;;15.70;86.60;;;;;;5082065;28;20842;-77
2024/03/25 11:12:42;;;;;;;0.30;0.20;;;15.80;85.30;;;;;;5081477;28;20484;-75
2024/03/25 11:15:08;;;;;;;0.30;0.20;;;15.80;84.50;;;;;;5082264;28;20426;-76
2024/03/25 11:17:35;;;;;;;0.30;0.20;;;15.90;85.40;;;;;;5083411;28;20434;-78
2024/03/25 11:20:16;;;;;;;0.30;0.20;;;15.90;83.30;;;;;;5078161;28;20429;-78
2024/03/25 11:22:49;;;;;;;0.30;0.20;;;15.90;83.80;;;;;;5077385;28;20677;-76
2024/03/25 11:25:16;;;;;;;0.30;0.20;;;16.00;83.60;;;;;;5080975;28;20439;-76
2024/03/25 11:27:44;;;;;;;0.30;0.30;;;16.00;83.30;;;;;;5071246;28;20528;-78
2024/03/25 11:30:11;;;;;;;0.30;0.20;;;16.10;81.60;;;;;;5082417;28;20417;-76
2024/03/25 11:32:54;;;;;;;0.30;0.20;;;16.20;81.30;;;;;;5080283;28;20495;-78
2024/03/25 11:35:20;;;;;;;0.30;0.20;;;16.20;80.20;;;;;;5071178;28;20444;-78
2024/03/25 11:37:47;;;;;;;0.30;0.20;;;16.30;81.10;;;;;;5073633;28;20438;-76
2024/03/25 11:40:15;;;;;;;0.30;0.20;;;16.40;80.40;;;;;;5069367;28;20920;-77
2024/03/25 11:42:45;;;;;;;0.30;0.20;;;16.50;80.70;;;;;;5071126;28;20454;-76
2024/03/25 11:45:20;;;;;;;0.30;0.20;;;16.50;81.30;;;;;;5073059;28;20420;-76
2024/03/25 11:47:47;;;;;;;0.30;0.20;;;16.70;80.50;;;;;;5069572;28;20438;-78
2024/03/25 11:50:17;;;;;;;0.40;0.40;;;16.70;79.60;;;;;;5072702;28;20782;-77
2024/03/25 11:52:43;;;;;;;0.30;0.20;;;16.70;80.30;;;;;;5069886;28;20474;-78
2024/03/25 11:55:12;;;;;;;0.30;0.20;;;16.60;80.20;;;;;;5077425;28;20429;-76
2024/03/25 11:57:38;;;;;;;0.30;0.20;;;16.40;80.00;;;;;;5074940;28;20665;-78
2024/03/25 12:00:05;;;;;;;0.30;0.20;;;16.30;80.80;;;;;;5072476;28;20940;-76
2024/03/25 12:02:32;;;;;;;0.30;0.20;;;16.20;81.20;;;;;;5073797;28;20433;-78
2024/03/25 12:04:57;;;;;;;0.30;0.20;;;16.10;81.10;;;;;;5069476;28;20451;-76
2024/03/25 12:07:23;;;;;;;0.30;0.20;;;16.10;82.10;;;;;;5082957;28;20417;-76
2024/03/25 12:12:34;;;;;;;0.30;0.20;;;16.20;80.50;;;;;;5075196;28;20522;-75
2024/03/25 12:15:02;;;;;;;0.30;0.20;;;16.20;78.90;;;;;;5068152;28;20526;-80
2024/03/25 12:17:28;;;;;;;0.30;0.20;;;16.20;79.60;;;;;;5071729;28;20621;-78
2024/03/25 12:20:13;;;;;;;0.30;0.20;;;16.40;79.60;;;;;;5078299;28;20949;-78
2024/03/25 12:22:41;;;;;;;0.30;0.20;;;16.50;78.10;;;;;;5074156;28;20487;-75
2024/03/25 12:25:08;;;;;;;0.30;0.20;;;16.50;77.80;;;;;;5076604;28;20445;-75
2024/03/25 12:27:36;;;;;;;0.30;0.20;;;16.50;77.30;;;;;;5074536;28;20831;-78
2024/03/25 12:30:06;;;;;;;0.43;0.40;;;16.50;78.20;;;;;;5071533;28;20552;-79
2024/03/25 12:32:42;;;;;;;0.30;0.20;;;16.50;77.50;;;;;;5073469;28;20776;-75
2024/03/25 12:35:13;;;;;;;0.30;0.20;;;16.60;77.10;;;;;;5072364;28;20533;-79
2024/03/25 12:37:44;;;;;;;0.30;0.20;;;16.60;80.10;;;;;;5072114;28;20476;-78
2024/03/25 12:40:11;;;;;;;0.30;0.20;;;16.60;78.80;;;;;;5069876;28;20478;-79
2024/03/25 12:42:38;;;;;;;0.30;0.20;;;16.60;79.00;;;;;;5071607;28;20801;-79
2024/03/25 12:45:06;;;;;;;0.30;0.20;;;16.60;79.50;;;;;;5076724;28;20829;-75
2024/03/25 12:47:31;;;;;;;0.30;0.20;;;16.60;79.50;;;;;;5072598;28;20856;-78
2024/03/25 12:49:57;;;;;;;0.30;0.20;;;16.70;79.80;;;;;;5073853;28;20431;-78
2024/03/25 12:52:24;;;;;;;0.30;0.20;;;16.70;78.80;;;;;;5083432;28;20217;-75
2024/03/25 12:54:49;;;;;;;0.30;0.20;;;16.80;79.60;;;;;;5084608;28;20505;-79
2024/03/25 12:57:15;;;;;;;0.30;0.20;;;16.80;79.70;;;;;;5083795;28;21184;-76
2024/03/25 12:59:41;;;;;;;0.30;0.20;;;16.90;80.10;;;;;;5082581;28;20181;-76